Time;durP1;ratioP1;P1;durP2;ratioP2;P2;SDS_P1;SDS_P2;PMS_P1;PMS_P2;Temp;Humidity;BMP_temperature;BMP_pressure;BME280_temperature;BME280_humidity;BME280_pressure;Samples;Min_cycle;Max_cycle;Signal;HPM_P1;HPM_P2
2022/06/07 00:01:23;;;;;;;2.30;1.20;;;;;;;;;;10367925;28;20025;-42
2022/06/07 00:06:24;;;;;;;1.60;1.00;;;;;;;;;;10357907;28;20099;-42
2022/06/07 00:11:24;;;;;;;2.40;1.30;;;;;;;;;;10389048;28;20026;-42
2022/06/07 00:16:25;;;;;;;1.30;1.02;;;;;;;;;;10365549;28;20030;-42
2022/06/07 00:21:29;;;;;;;1.35;0.88;;;;;;;;;;10367929;28;20474;-42
2022/06/07 00:26:31;;;;;;;9.85;1.13;;;;;;;;;;10364977;28;20053;-41
2022/06/07 00:31:31;;;;;;;2.35;1.30;;;;;;;;;;10377713;28;20113;-41
2022/06/07 00:36:34;;;;;;;1.25;1.15;;;;;;;;;;10371269;28;20032;-42
2022/06/07 00:41:35;;;;;;;1.13;1.02;;;;;;;;;;10362004;28;20539;-42
2022/06/07 00:46:36;;;;;;;1.10;0.90;;;;;;;;;;10361913;28;20041;-42
2022/06/07 00:51:37;;;;;;;1.90;1.15;;;;;;;;;;10371721;28;20026;-42
2022/06/07 00:56:37;;;;;;;1.90;1.20;;;;;;;;;;10359560;28;20033;-42
2022/06/07 01:01:38;;;;;;;2.13;1.30;;;;;;;;;;10367356;28;20030;-42
2022/06/07 01:11:57;;;;;;;4.53;0.95;;;;;;;;;;10367450;28;20113;-42
2022/06/07 01:16:58;;;;;;;1.65;1.17;;;;;;;;;;10360815;28;20116;-42
2022/06/07 01:21:59;;;;;;;1.27;1.00;;;;;;;;;;10367227;28;20040;-42
2022/06/07 01:26:59;;;;;;;1.27;1.10;;;;;;;;;;10365408;28;20095;-43
2022/06/07 01:32:00;;;;;;;1.50;1.20;;;;;;;;;;10365556;28;20469;-42
2022/06/07 01:37:01;;;;;;;1.73;1.30;;;;;;;;;;10365385;28;20030;-43
2022/06/07 01:42:02;;;;;;;5.57;1.25;;;;;;;;;;10361460;28;20455;-42
2022/06/07 01:47:05;;;;;;;1.77;1.13;;;;;;;;;;10364906;28;20088;-43
2022/06/07 01:52:08;;;;;;;1.77;1.45;;;;;;;;;;10357485;28;20124;-43
2022/06/07 01:57:09;;;;;;;2.47;1.20;;;;;;;;;;10365227;28;20481;-42
2022/06/07 02:02:10;;;;;;;2.22;1.13;;;;;;;;;;10367624;28;20026;-43
2022/06/07 02:07:13;;;;;;;1.02;1.00;;;;;;;;;;10373090;28;20034;-42
2022/06/07 02:12:14;;;;;;;3.05;1.40;;;;;;;;;;10371865;28;20088;-42
2022/06/07 02:17:15;;;;;;;1.95;1.25;;;;;;;;;;10371610;28;20033;-43
2022/06/07 02:22:15;;;;;;;1.85;1.05;;;;;;;;;;10377194;28;20580;-42
2022/06/07 02:27:19;;;;;;;4.32;1.30;;;;;;;;;;10371402;28;20382;-42
2022/06/07 02:32:26;;;;;;;1.10;1.00;;;;;;;;;;10371264;28;20061;-42
2022/06/07 02:37:27;;;;;;;1.35;1.20;;;;;;;;;;10369328;28;20129;-43
2022/06/07 02:42:29;;;;;;;1.42;1.10;;;;;;;;;;10366591;28;20034;-42
2022/06/07 02:47:30;;;;;;;1.13;1.00;;;;;;;;;;10369473;28;20084;-42
2022/06/07 02:52:31;;;;;;;1.42;1.20;;;;;;;;;;10385396;28;20113;-43
2022/06/07 02:57:32;;;;;;;1.13;1.00;;;;;;;;;;10363185;28;20041;-44
2022/06/07 03:02:32;;;;;;;1.77;1.20;;;;;;;;;;10364494;28;20033;-42
2022/06/07 03:07:33;;;;;;;2.00;1.02;;;;;;;;;;10367653;28;20034;-42
2022/06/07 03:12:34;;;;;;;1.30;1.20;;;;;;;;;;10362662;28;20025;-42
2022/06/07 03:17:35;;;;;;;1.80;1.38;;;;;;;;;;10363640;28;20129;-42
2022/06/07 03:22:36;;;;;;;2.63;1.20;;;;;;;;;;10372258;28;20040;-42
2022/06/07 03:27:39;;;;;;;4.95;1.38;;;;;;;;;;10363550;28;20481;-42
2022/06/07 03:32:39;;;;;;;1.55;1.13;;;;;;;;;;10369425;28;20026;-43
2022/06/07 03:37:40;;;;;;;1.33;1.00;;;;;;;;;;10358295;28;20042;-42
2022/06/07 03:42:41;;;;;;;3.15;1.23;;;;;;;;;;10369282;28;20036;-42
2022/06/07 03:47:41;;;;;;;2.35;1.10;;;;;;;;;;10367310;28;20030;-42
2022/06/07 03:52:42;;;;;;;1.15;1.08;;;;;;;;;;10368043;28;20034;-42
2022/06/07 03:57:43;;;;;;;7.15;1.33;;;;;;;;;;10367627;28;20037;-42
2022/06/07 04:02:43;;;;;;;2.75;1.23;;;;;;;;;;10366232;28;20025;-42
2022/06/07 04:13:03;;;;;;;8.55;1.30;;;;;;;;;;10355402;28;20033;-42
2022/06/07 04:18:04;;;;;;;3.05;1.00;;;;;;;;;;10370887;28;20029;-43
2022/06/07 04:23:06;;;;;;;7.68;1.17;;;;;;;;;;10364649;28;20050;-42
2022/06/07 04:28:07;;;;;;;2.90;1.00;;;;;;;;;;10374697;28;20395;-43
2022/06/07 04:33:08;;;;;;;1.90;1.02;;;;;;;;;;10369867;28;20117;-43
2022/06/07 04:38:09;;;;;;;1.35;1.00;;;;;;;;;;10367773;28;20029;-43
2022/06/07 04:43:11;;;;;;;3.50;1.30;;;;;;;;;;10366975;28;20018;-43
2022/06/07 04:48:12;;;;;;;5.68;1.20;;;;;;;;;;10359383;28;20026;-43
2022/06/07 04:53:12;;;;;;;2.92;0.90;;;;;;;;;;10343764;28;20026;-44
2022/06/07 04:58:13;;;;;;;1.25;1.00;;;;;;;;;;10359612;28;20387;-42
2022/06/07 05:03:14;;;;;;;2.63;1.20;;;;;;;;;;10361240;28;20406;-43
2022/06/07 05:08:14;;;;;;;3.47;1.02;;;;;;;;;;10356572;28;20030;-43
2022/06/07 05:13:15;;;;;;;3.80;1.00;;;;;;;;;;10360486;28;20030;-43
2022/06/07 05:18:15;;;;;;;2.58;1.33;;;;;;;;;;10356609;28;20033;-42
2022/06/07 05:23:16;;;;;;;2.33;1.00;;;;;;;;;;10357670;28;20060;-42
2022/06/07 05:28:17;;;;;;;1.70;1.10;;;;;;;;;;10351755;28;20478;-42
2022/06/07 05:33:18;;;;;;;2.95;1.15;;;;;;;;;;10364761;28;20030;-43
2022/06/07 05:38:18;;;;;;;3.97;1.52;;;;;;;;;;10351444;28;20022;-41
2022/06/07 05:43:19;;;;;;;4.45;1.55;;;;;;;;;;10364192;28;20034;-42
2022/06/07 05:48:20;;;;;;;8.10;1.95;;;;;;;;;;10370437;28;20085;-42
2022/06/07 05:53:23;;;;;;;10.23;2.25;;;;;;;;;;10369868;28;20029;-42
2022/06/07 05:58:25;;;;;;;14.63;2.67;;;;;;;;;;10374404;28;20121;-41
2022/06/07 06:03:25;;;;;;;9.45;2.38;;;;;;;;;;10367062;28;20053;-41
2022/06/07 06:13:45;;;;;;;14.18;2.58;;;;;;;;;;10364696;28;20474;-42
2022/06/07 06:18:48;;;;;;;7.97;3.00;;;;;;;;;;10376370;28;20022;-42
2022/06/07 06:23:49;;;;;;;10.20;2.63;;;;;;;;;;10363339;28;20425;-41
2022/06/07 06:28:50;;;;;;;5.50;1.90;;;;;;;;;;10370765;28;20128;-41
2022/06/07 06:33:54;;;;;;;8.07;2.30;;;;;;;;;;10372625;28;20018;-42
2022/06/07 06:38:55;;;;;;;3.47;2.00;;;;;;;;;;10372480;28;20025;-43
2022/06/07 06:44:01;;;;;;;11.25;2.55;;;;;;;;;;10369924;28;20477;-43
2022/06/07 06:49:03;;;;;;;4.60;2.28;;;;;;;;;;10368805;28;20057;-42
2022/06/07 06:54:04;;;;;;;5.55;1.85;;;;;;;;;;10369558;28;20049;-43
2022/06/07 06:59:06;;;;;;;5.63;2.00;;;;;;;;;;10369950;28;20121;-42
2022/06/07 07:04:11;;;;;;;4.07;1.80;;;;;;;;;;10365437;28;20026;-42
2022/06/07 07:09:14;;;;;;;4.82;2.22;;;;;;;;;;10369854;28;20477;-43
2022/06/07 07:14:15;;;;;;;6.28;2.00;;;;;;;;;;10367318;28;20036;-41
2022/06/07 07:19:17;;;;;;;4.63;1.90;;;;;;;;;;10373291;28;20385;-43
2022/06/07 07:24:24;;;;;;;5.20;1.70;;;;;;;;;;10366344;28;20041;-42
2022/06/07 07:29:26;;;;;;;4.80;1.60;;;;;;;;;;10370736;28;20030;-43
2022/06/07 07:34:26;;;;;;;3.25;1.98;;;;;;;;;;10365892;28;20098;-42
2022/06/07 07:39:27;;;;;;;3.85;1.80;;;;;;;;;;10370863;28;20030;-42
2022/06/07 07:44:28;;;;;;;5.63;1.75;;;;;;;;;;10365148;28;20153;-42
2022/06/07 07:49:30;;;;;;;4.30;1.88;;;;;;;;;;10369084;28;20038;-43
2022/06/07 07:54:31;;;;;;;3.35;1.90;;;;;;;;;;10374833;28;20493;-42
2022/06/07 07:59:31;;;;;;;5.35;1.92;;;;;;;;;;10367269;28;20068;-42
2022/06/07 08:04:32;;;;;;;4.82;2.00;;;;;;;;;;10367679;28;20030;-43
2022/06/07 08:09:33;;;;;;;4.05;2.30;;;;;;;;;;10358034;28;20492;-42
2022/06/07 08:14:34;;;;;;;3.88;1.67;;;;;;;;;;10366677;28;20029;-40
2022/06/07 08:19:35;;;;;;;7.40;1.85;;;;;;;;;;10375468;28;20032;-43
2022/06/07 08:24:37;;;;;;;6.55;2.15;;;;;;;;;;10375743;28;20048;-42
2022/06/07 08:29:38;;;;;;;4.10;1.85;;;;;;;;;;10369152;28;20402;-43
2022/06/07 08:40:27;;;;;;;5.15;1.83;;;;;;;;;;10361982;28;20481;-42
2022/06/07 08:45:33;;;;;;;2.97;1.60;;;;;;;;;;10373421;28;20029;-42
2022/06/07 08:50:46;;;;;;;8.25;2.10;;;;;;;;;;10366598;28;20463;-43
2022/06/07 08:55:53;;;;;;;4.60;2.08;;;;;;;;;;10368403;28;20025;-42
2022/06/07 09:00:59;;;;;;;5.70;1.87;;;;;;;;;;10377931;28;20033;-43
2022/06/07 09:06:03;;;;;;;12.20;2.42;;;;;;;;;;10365417;28;20504;-42
2022/06/07 09:16:25;;;;;;;3.10;1.88;;;;;;;;;;10374906;28;20037;-43
2022/06/07 09:21:30;;;;;;;4.45;2.20;;;;;;;;;;10374031;28;20025;-42
2022/06/07 09:26:37;;;;;;;9.48;2.30;;;;;;;;;;10375118;28;20041;-42
2022/06/07 09:31:41;;;;;;;2.78;1.80;;;;;;;;;;10370667;28;20068;-42
2022/06/07 09:36:46;;;;;;;7.20;2.10;;;;;;;;;;10373176;28;20049;-41
2022/06/07 09:42:13;;;;;;;8.00;2.00;;;;;;;;;;10350255;28;20025;-42
2022/06/07 09:47:20;;;;;;;6.00;2.00;;;;;;;;;;10351373;28;20042;-42
2022/06/07 09:52:23;;;;;;;3.37;2.00;;;;;;;;;;10384151;28;20103;-41
2022/06/07 09:57:42;;;;;;;3.28;1.67;;;;;;;;;;10373466;28;20448;-43
2022/06/07 10:03:04;;;;;;;4.80;2.22;;;;;;;;;;10376622;28;20025;-41
2022/06/07 10:09:01;;;;;;;4.22;2.10;;;;;;;;;;10369045;28;20112;-41
2022/06/07 10:14:42;;;;;;;2.70;1.92;;;;;;;;;;10351654;28;20126;-40
2022/06/07 10:20:22;;;;;;;3.55;2.10;;;;;;;;;;10366119;28;20113;-42
2022/06/07 10:25:57;;;;;;;3.33;1.90;;;;;;;;;;10362552;28;20050;-41
2022/06/07 10:31:00;;;;;;;6.03;2.00;;;;;;;;;;10377026;28;20277;-41
2022/06/07 10:36:42;;;;;;;5.55;2.17;;;;;;;;;;10369699;28;20551;-40
2022/06/07 10:42:04;;;;;;;3.58;1.70;;;;;;;;;;10367707;28;20018;-41
2022/06/07 10:47:30;;;;;;;6.10;2.17;;;;;;;;;;10360741;28;20049;-42
2022/06/07 10:52:52;;;;;;;9.05;2.10;;;;;;;;;;10353751;28;20041;-42
2022/06/07 10:58:06;;;;;;;7.05;2.25;;;;;;;;;;10345883;28;20029;-42
2022/06/07 11:03:26;;;;;;;3.22;1.58;;;;;;;;;;10355477;28;20042;-43
2022/06/07 11:15:12;;;;;;;3.03;1.97;;;;;;;;;;10384290;28;20034;-42
2022/06/07 11:20:24;;;;;;;2.88;2.00;;;;;;;;;;10355020;28;20058;-43
2022/06/07 11:25:36;;;;;;;2.80;1.48;;;;;;;;;;10368807;28;20048;-42
2022/06/07 11:30:37;;;;;;;6.28;2.05;;;;;;;;;;10364340;28;20121;-42
2022/06/07 11:36:13;;;;;;;5.40;2.22;;;;;;;;;;10370271;28;20022;-41
2022/06/07 11:41:38;;;;;;;5.35;1.90;;;;;;;;;;10360350;28;20409;-42
2022/06/07 11:46:49;;;;;;;2.40;1.92;;;;;;;;;;10364374;28;20117;-41
2022/06/07 11:52:14;;;;;;;4.63;2.08;;;;;;;;;;10354334;28;20458;-41
2022/06/07 11:57:29;;;;;;;3.17;2.00;;;;;;;;;;10366868;28;20131;-43
2022/06/07 12:02:34;;;;;;;4.80;1.52;;;;;;;;;;10366428;28;20030;-42
2022/06/07 12:07:49;;;;;;;8.63;2.20;;;;;;;;;;10369132;28;20022;-41
2022/06/07 12:13:00;;;;;;;2.35;1.80;;;;;;;;;;10362529;28;20113;-41
2022/06/07 12:18:07;;;;;;;4.32;1.98;;;;;;;;;;10363705;28;20038;-41
2022/06/07 12:23:29;;;;;;;7.78;2.17;;;;;;;;;;10366973;28;20049;-40
2022/06/07 12:28:39;;;;;;;2.50;1.58;;;;;;;;;;10366835;28;20366;-40
2022/06/07 12:33:40;;;;;;;3.58;2.10;;;;;;;;;;10359855;28;20022;-42
2022/06/07 12:38:46;;;;;;;3.80;1.90;;;;;;;;;;10373058;28;20390;-41
2022/06/07 12:43:56;;;;;;;3.10;2.10;;;;;;;;;;10378102;28;20034;-40
2022/06/07 12:48:59;;;;;;;3.83;1.92;;;;;;;;;;10368026;28;20037;-41
2022/06/07 12:54:23;;;;;;;2.20;1.65;;;;;;;;;;10355803;28;20541;-40
2022/06/07 12:59:50;;;;;;;2.42;1.80;;;;;;;;;;10364791;28;20062;-41
2022/06/07 13:04:55;;;;;;;2.20;1.90;;;;;;;;;;10369689;28;20022;-40
2022/06/07 13:10:06;;;;;;;3.25;1.85;;;;;;;;;;10377089;28;20037;-40
2022/06/07 13:15:29;;;;;;;3.70;1.80;;;;;;;;;;10360025;28;20041;-41
2022/06/07 13:20:37;;;;;;;2.28;1.75;;;;;;;;;;10364400;28;20073;-40
2022/06/07 13:25:37;;;;;;;4.05;1.98;;;;;;;;;;10365087;28;20125;-41
2022/06/07 13:30:42;;;;;;;3.13;1.90;;;;;;;;;;10368216;28;20030;-40
2022/06/07 13:35:50;;;;;;;2.45;1.70;;;;;;;;;;10362659;28;20045;-40
2022/06/07 13:41:20;;;;;;;4.57;1.90;;;;;;;;;;10376099;28;20113;-40
2022/06/07 13:46:32;;;;;;;2.90;1.63;;;;;;;;;;10363193;28;20053;-40
2022/06/07 13:56:52;;;;;;;3.17;1.60;;;;;;;;;;10367406;28;20029;-41
2022/06/07 14:01:53;;;;;;;2.50;1.50;;;;;;;;;;10371972;28;20022;-41
2022/06/07 14:06:54;;;;;;;4.25;1.50;;;;;;;;;;10371406;28;20064;-40
2022/06/07 14:11:59;;;;;;;2.95;1.80;;;;;;;;;;10370997;28;20026;-41
2022/06/07 14:17:11;;;;;;;2.60;1.60;;;;;;;;;;10376533;28;20022;-40
2022/06/07 14:22:20;;;;;;;4.70;1.50;;;;;;;;;;10367081;28;20030;-42
2022/06/07 14:27:24;;;;;;;8.32;1.80;;;;;;;;;;10374470;28;20520;-42
2022/06/07 14:32:31;;;;;;;6.93;2.03;;;;;;;;;;10369570;28;20057;-42
2022/06/07 14:37:31;;;;;;;5.95;2.00;;;;;;;;;;10370862;28;20429;-41
2022/06/07 14:42:32;;;;;;;4.28;1.88;;;;;;;;;;10370022;28;20088;-40
2022/06/07 14:47:32;;;;;;;2.45;1.70;;;;;;;;;;10373784;28;20021;-42
2022/06/07 14:52:33;;;;;;;4.53;1.75;;;;;;;;;;10369756;28;20096;-41
2022/06/07 14:57:35;;;;;;;3.92;2.00;;;;;;;;;;10370649;28;20036;-41
2022/06/07 15:02:37;;;;;;;3.65;1.83;;;;;;;;;;10367676;28;20040;-41
2022/06/07 15:07:55;;;;;;;3.40;1.75;;;;;;;;;;10369390;28;20548;-40
2022/06/07 15:12:57;;;;;;;4.00;2.00;;;;;;;;;;10366053;28;20035;-42
2022/06/07 15:18:01;;;;;;;2.53;1.80;;;;;;;;;;10367489;28;20026;-42
2022/06/07 15:23:14;;;;;;;2.60;1.67;;;;;;;;;;10368166;28;20037;-42
2022/06/07 15:28:16;;;;;;;3.15;1.77;;;;;;;;;;10366377;28;20034;-42
2022/06/07 15:33:20;;;;;;;8.10;1.83;;;;;;;;;;10374726;28;20510;-42
2022/06/07 15:38:22;;;;;;;4.18;2.00;;;;;;;;;;10370521;28;20105;-41
2022/06/07 15:43:28;;;;;;;1.92;1.50;;;;;;;;;;10375347;28;20026;-42
2022/06/07 15:48:30;;;;;;;2.40;1.90;;;;;;;;;;10372142;28;20033;-41
2022/06/07 15:53:33;;;;;;;6.75;2.00;;;;;;;;;;10369168;28;20057;-41
2022/06/07 16:03:57;;;;;;;3.67;1.65;;;;;;;;;;10371899;28;20034;-41
2022/06/07 16:08:59;;;;;;;5.38;2.00;;;;;;;;;;10367739;28;20374;-41
2022/06/07 16:13:59;;;;;;;2.83;1.73;;;;;;;;;;10366514;28;20040;-41
2022/06/07 16:19:00;;;;;;;4.55;1.95;;;;;;;;;;10362290;28;20034;-41
2022/06/07 16:24:01;;;;;;;1.80;1.58;;;;;;;;;;10369899;28;20053;-42
2022/06/07 16:34:22;;;;;;;4.65;1.33;;;;;;;;;;10368754;28;20034;-42
2022/06/07 16:39:26;;;;;;;5.55;1.45;;;;;;;;;;10368425;28;20033;-42
2022/06/07 16:44:26;;;;;;;4.20;1.85;;;;;;;;;;10371751;28;20021;-42
2022/06/07 16:49:32;;;;;;;6.10;1.60;;;;;;;;;;10365014;28;20044;-41
2022/06/07 16:54:36;;;;;;;5.28;1.75;;;;;;;;;;10366192;28;20026;-41
2022/06/07 16:59:39;;;;;;;5.10;1.42;;;;;;;;;;10367141;28;20442;-41
2022/06/07 17:04:40;;;;;;;2.90;1.67;;;;;;;;;;10377696;28;20112;-43
2022/06/07 17:09:41;;;;;;;11.32;2.00;;;;;;;;;;10367204;28;20030;-40
2022/06/07 17:14:42;;;;;;;8.25;1.30;;;;;;;;;;10368533;28;20572;-41
2022/06/07 17:19:42;;;;;;;2.40;1.25;;;;;;;;;;10358408;28;20030;-41
2022/06/07 17:24:44;;;;;;;5.75;1.15;;;;;;;;;;10361023;28;20500;-42
2022/06/07 17:29:45;;;;;;;1.88;1.00;;;;;;;;;;10363002;28;20026;-42
2022/06/07 17:34:46;;;;;;;1.70;1.02;;;;;;;;;;10372400;28;20484;-41
2022/06/07 17:39:47;;;;;;;6.22;1.13;;;;;;;;;;10371535;28;20050;-41
2022/06/07 17:44:50;;;;;;;2.38;0.90;;;;;;;;;;10369881;28;20033;-41
2022/06/07 17:49:51;;;;;;;2.92;0.95;;;;;;;;;;10369513;28;20037;-41
2022/06/07 17:54:53;;;;;;;2.60;0.90;;;;;;;;;;10384926;28;20033;-44
2022/06/07 17:59:53;;;;;;;0.82;0.68;;;;;;;;;;10365201;28;20113;-39
2022/06/07 18:04:54;;;;;;;1.65;0.80;;;;;;;;;;10371379;28;20025;-40
2022/06/07 18:09:55;;;;;;;4.35;0.82;;;;;;;;;;10371342;28;20030;-40
2022/06/07 18:14:55;;;;;;;9.18;1.00;;;;;;;;;;10372290;28;20041;-41
2022/06/07 18:19:56;;;;;;;6.88;1.10;;;;;;;;;;10372195;28;20053;-42
2022/06/07 18:24:57;;;;;;;7.65;0.80;;;;;;;;;;10373099;28;20061;-41
2022/06/07 18:29:58;;;;;;;2.58;0.90;;;;;;;;;;10367036;28;20033;-41
2022/06/07 18:35:01;;;;;;;3.17;1.13;;;;;;;;;;10365915;28;20034;-42
2022/06/07 18:40:02;;;;;;;1.83;1.10;;;;;;;;;;10367158;28;20051;-42
2022/06/07 18:45:04;;;;;;;10.88;1.38;;;;;;;;;;10367598;28;20397;-42
2022/06/07 18:50:05;;;;;;;5.07;1.15;;;;;;;;;;10368306;28;20040;-42
2022/06/07 18:55:10;;;;;;;1.95;0.82;;;;;;;;;;10361509;28;20034;-42
2022/06/07 19:00:20;;;;;;;2.13;1.00;;;;;;;;;;10370441;28;20081;-43
2022/06/07 19:05:31;;;;;;;3.65;1.05;;;;;;;;;;10372505;28;20026;-40
2022/06/07 19:10:33;;;;;;;6.10;1.00;;;;;;;;;;10372707;28;20473;-40
2022/06/07 19:15:38;;;;;;;4.35;0.80;;;;;;;;;;10374496;28;20478;-41
2022/06/07 19:20:40;;;;;;;1.65;0.80;;;;;;;;;;10377769;28;20116;-41
2022/06/07 19:25:45;;;;;;;3.83;1.00;;;;;;;;;;10369694;28;20049;-42
2022/06/07 19:30:47;;;;;;;1.25;0.90;;;;;;;;;;10367945;28;20030;-40
2022/06/07 19:35:49;;;;;;;2.28;0.98;;;;;;;;;;10378456;28;20111;-43
2022/06/07 19:40:50;;;;;;;1.70;0.65;;;;;;;;;;10387782;28;20034;-41
2022/06/07 19:45:50;;;;;;;5.78;0.93;;;;;;;;;;10372652;28;20034;-41
2022/06/07 19:51:01;;;;;;;7.82;1.13;;;;;;;;;;10377261;28;20405;-43
2022/06/07 19:56:02;;;;;;;1.77;0.70;;;;;;;;;;10362943;28;20548;-42
2022/06/07 20:01:04;;;;;;;1.13;0.82;;;;;;;;;;10365044;28;20112;-41
2022/06/07 20:06:05;;;;;;;1.10;0.90;;;;;;;;;;10365991;28;20486;-42
2022/06/07 20:11:06;;;;;;;1.27;0.75;;;;;;;;;;10367606;28;20117;-41
2022/06/07 20:16:07;;;;;;;0.98;0.80;;;;;;;;;;10361263;28;20036;-41
2022/06/07 20:21:08;;;;;;;1.38;0.98;;;;;;;;;;10373901;28;20033;-41
2022/06/07 20:26:09;;;;;;;1.65;0.70;;;;;;;;;;10365873;28;20042;-41
2022/06/07 20:31:09;;;;;;;3.42;0.68;;;;;;;;;;10365943;28;20030;-42
2022/06/07 20:36:11;;;;;;;2.10;0.85;;;;;;;;;;10356568;28;20401;-41
2022/06/07 20:41:11;;;;;;;2.72;0.80;;;;;;;;;;10366987;28;20024;-41
2022/06/07 20:46:12;;;;;;;1.88;1.20;;;;;;;;;;10358145;28;20021;-42
2022/06/07 20:51:13;;;;;;;0.90;0.77;;;;;;;;;;10364572;28;20045;-42
2022/06/07 20:56:14;;;;;;;0.70;0.70;;;;;;;;;;10365150;28;20038;-41
2022/06/07 21:01:15;;;;;;;5.72;0.90;;;;;;;;;;10365402;28;20114;-42
2022/06/07 21:06:17;;;;;;;3.05;0.90;;;;;;;;;;10368205;28;20393;-41
2022/06/07 21:11:17;;;;;;;0.60;0.60;;;;;;;;;;10390657;28;20108;-41
2022/06/07 21:16:19;;;;;;;4.53;0.80;;;;;;;;;;10372988;28;20397;-41
2022/06/07 21:21:20;;;;;;;0.60;0.60;;;;;;;;;;10377530;28;20033;-41
2022/06/07 21:26:20;;;;;;;1.08;0.80;;;;;;;;;;10372207;28;20104;-41
2022/06/07 21:31:21;;;;;;;1.77;0.60;;;;;;;;;;10372797;28;20103;-42
2022/06/07 21:36:22;;;;;;;0.88;0.63;;;;;;;;;;10366148;28;20030;-42
2022/06/07 21:41:24;;;;;;;7.15;1.23;;;;;;;;;;10368738;28;20026;-42
2022/06/07 21:46:24;;;;;;;2.97;1.00;;;;;;;;;;10370576;28;20033;-42
2022/06/07 21:51:25;;;;;;;1.73;0.70;;;;;;;;;;10370750;28;20366;-43
2022/06/07 21:56:26;;;;;;;5.20;1.10;;;;;;;;;;10370308;28;20014;-43
2022/06/07 22:01:26;;;;;;;2.20;0.80;;;;;;;;;;10370411;28;20018;-43
2022/06/07 22:06:27;;;;;;;4.15;0.70;;;;;;;;;;10369933;28;20484;-42
2022/06/07 22:11:28;;;;;;;4.80;1.00;;;;;;;;;;10367926;28;20022;-43
2022/06/07 22:16:30;;;;;;;0.50;0.50;;;;;;;;;;10368528;28;20041;-43
2022/06/07 22:21:31;;;;;;;2.40;0.93;;;;;;;;;;10365657;28;20036;-43
2022/06/07 22:26:31;;;;;;;2.20;0.98;;;;;;;;;;10366546;28;20637;-44
2022/06/07 22:31:32;;;;;;;7.65;0.85;;;;;;;;;;10366608;28;20050;-44
2022/06/07 22:36:33;;;;;;;4.03;1.10;;;;;;;;;;10367084;28;20037;-43
2022/06/07 22:41:33;;;;;;;6.43;1.17;;;;;;;;;;10367534;28;20018;-43
2022/06/07 22:46:34;;;;;;;4.22;1.08;;;;;;;;;;10368210;28;20572;-43
2022/06/07 22:51:36;;;;;;;4.80;0.90;;;;;;;;;;10367922;28;20458;-44
2022/06/07 22:56:38;;;;;;;2.42;0.88;;;;;;;;;;10368722;28;20026;-43
2022/06/07 23:01:43;;;;;;;2.47;0.82;;;;;;;;;;10397687;28;20084;-43
2022/06/07 23:06:55;;;;;;;3.97;1.13;;;;;;;;;;10359400;28;20068;-44
2022/06/07 23:11:56;;;;;;;1.00;0.75;;;;;;;;;;10364800;28;20041;-44
2022/06/07 23:22:19;;;;;;;1.38;0.80;;;;;;;;;;10370524;28;20399;-43
2022/06/07 23:27:21;;;;;;;2.03;0.93;;;;;;;;;;10370072;28;20112;-44
2022/06/07 23:32:24;;;;;;;1.60;0.82;;;;;;;;;;10367745;28;20030;-44
2022/06/07 23:37:25;;;;;;;1.45;0.80;;;;;;;;;;10372108;28;20026;-43
2022/06/07 23:42:26;;;;;;;2.22;1.05;;;;;;;;;;10369455;28;20037;-43
2022/06/07 23:47:37;;;;;;;1.23;0.65;;;;;;;;;;10365755;28;20091;-43
2022/06/07 23:52:45;;;;;;;4.45;0.90;;;;;;;;;;10367682;28;20105;-42
2022/06/07 23:57:47;;;;;;;;;;;;;;;;;;10368928;28;20045;-43
